Time,TemperatureF,DewpointF,PressureIn,WindDirection,WindDirectionDegrees,WindSpeedMPH,WindSpeedGustMPH,Humidity,HourlyPrecipIn,Conditions,Clouds,dailyrainin,SoftwareType,DateUTC
2013-06-12 00:01:00,72.9,71.4,30.06,WNW,295,0.0,0.0,95,0.00,,---,0.00,VWS V14.01,2013-06-12 04:01:00,
2013-06-12 00:02:00,72.9,71.4,30.06,WNW,295,0.0,0.0,95,0.00,,---,0.00,VWS V14.01,2013-06-12 04:02:00,
2013-06-12 00:07:00,72.9,71.4,30.06,WNW,295,0.0,0.0,95,0.00,,---,0.00,VWS V14.01,2013-06-12 04:07:00,
2013-06-12 00:12:00,72.9,71.7,30.06,WNW,295,0.0,1.0,96,0.00,,---,0.00,VWS V14.01,2013-06-12 04:12:00,
2013-06-12 00:17:00,72.8,71.3,30.06,WNW,295,0.0,1.0,95,0.00,,---,0.00,VWS V14.01,2013-06-12 04:17:00,
2013-06-12 00:22:00,72.9,71.7,30.07,WNW,295,0.0,1.0,96,0.00,,---,0.00,VWS V14.01,2013-06-12 04:22:00,
2013-06-12 00:27:00,72.9,71.7,30.07,WNW,295,0.0,1.0,96,0.00,,---,0.00,VWS V14.01,2013-06-12 04:27:00,
2013-06-12 00:33:00,72.9,71.7,30.07,WNW,301,0.0,1.0,96,0.00,,---,0.00,VWS V14.01,2013-06-12 04:33:00,
2013-06-12 00:38:00,73.0,71.8,30.06,WNW,290,0.0,1.0,96,0.00,,---,0.00,VWS V14.01,2013-06-12 04:38:00,
2013-06-12 00:43:00,73.0,71.5,30.07,WNW,293,0.0,1.0,95,0.00,,---,0.00,VWS V14.01,2013-06-12 04:43:00,
2013-06-12 00:48:00,72.8,71.3,30.07,WNW,293,0.0,1.0,95,0.00,,---,0.00,VWS V14.01,2013-06-12 04:48:00,
2013-06-12 00:53:00,72.6,71.1,30.07,WNW,291,0.0,1.0,95,0.00,,---,0.00,VWS V14.01,2013-06-12 04:53:00,
2013-06-12 00:58:00,72.5,71.0,30.06,WNW,291,0.0,1.0,95,0.00,,---,0.00,VWS V14.01,2013-06-12 04:58:00,
2013-06-12 01:03:00,72.3,70.8,30.06,WNW,291,0.0,0.0,95,0.00,,---,0.00,VWS V14.01,2013-06-12 05:03:00,
2013-06-12 01:08:00,72.2,71.0,30.06,WNW,293,0.0,1.0,96,0.00,,---,0.00,VWS V14.01,2013-06-12 05:08:00,
2013-06-12 01:13:00,72.3,71.1,30.06,West,274,0.0,1.0,96,0.00,,---,0.00,VWS V14.01,2013-06-12 05:13:00,
2013-06-12 01:18:00,72.2,70.7,30.06,West,274,0.0,1.0,95,0.00,,---,0.00,VWS V14.01,2013-06-12 05:18:00,
2013-06-12 01:23:00,72.1,70.6,30.06,West,274,0.0,1.0,95,0.00,,---,0.00,VWS V14.01,2013-06-12 05:23:00,
2013-06-12 01:28:00,71.9,70.4,30.06,West,274,0.0,1.0,95,0.00,,---,0.00,VWS V14.01,2013-06-12 05:28:00,
2013-06-12 01:33:00,71.8,70.3,30.06,West,274,0.0,0.0,95,0.00,,---,0.00,VWS V14.01,2013-06-12 05:33:00,
2013-06-12 01:39:00,71.6,70.1,30.06,West,274,0.0,0.0,95,0.00,,---,0.00,VWS V14.01,2013-06-12 05:39:00,
2013-06-12 01:44:00,71.6,70.4,30.06,West,274,0.0,0.0,96,0.00,,---,0.00,VWS V14.01,2013-06-12 05:44:00,
2013-06-12 01:49:00,71.6,70.4,30.06,West,281,0.0,0.0,96,0.00,,---,0.00,VWS V14.01,2013-06-12 05:49:00,
2013-06-12 01:54:00,71.6,70.4,30.06,West,281,0.0,0.0,96,0.00,,---,0.00,VWS V14.01,2013-06-12 05:54:00,
2013-06-12 01:59:00,71.5,70.3,30.06,West,281,0.0,0.0,96,0.00,,---,0.00,VWS V14.01,2013-06-12 05:59:00,
2013-06-12 02:04:00,71.4,70.2,30.06,West,281,0.0,0.0,96,0.00,,---,0.00,VWS V14.01,2013-06-12 06:04:00,
2013-06-12 02:09:00,71.3,70.1,30.06,West,281,0.0,0.0,96,0.00,,---,0.00,VWS V14.01,2013-06-12 06:09:00,
2013-06-12 02:14:00,71.3,70.1,30.06,West,281,0.0,0.0,96,0.00,,---,0.00,VWS V14.01,2013-06-12 06:14:00,
2013-06-12 02:19:00,71.3,70.1,30.06,West,281,0.0,0.0,96,0.00,,---,0.00,VWS V14.01,2013-06-12 06:19:00,
2013-06-12 02:24:00,71.4,70.2,30.06,West,281,0.0,0.0,96,0.00,,---,0.00,VWS V14.01,2013-06-12 06:24:00,
2013-06-12 02:29:00,71.3,70.1,30.05,West,281,0.0,0.0,96,0.00,,---,0.00,VWS V14.01,2013-06-12 06:29:00,
2013-06-12 02:34:00,71.2,70.0,30.05,West,281,0.0,0.0,96,0.00,,---,0.00,VWS V14.01,2013-06-12 06:34:00,
2013-06-12 02:39:00,71.2,70.0,30.05,West,281,0.0,0.0,96,0.00,,---,0.00,VWS V14.01,2013-06-12 06:39:00,
2013-06-12 02:44:00,71.1,69.9,30.05,West,281,0.0,0.0,96,0.00,,---,0.00,VWS V14.01,2013-06-12 06:44:00,
2013-06-12 02:49:00,71.0,69.8,30.05,West,281,0.0,0.0,96,0.00,,---,0.00,VWS V14.01,2013-06-12 06:49:00,
2013-06-12 02:54:00,71.0,69.8,30.05,West,281,0.0,0.0,96,0.00,,---,0.00,VWS V14.01,2013-06-12 06:54:00,
2013-06-12 03:00:00,71.0,70.1,30.05,West,281,0.0,0.0,97,0.00,,---,0.00,VWS V14.01,2013-06-12 07:00:00,
2013-06-12 03:05:00,71.0,70.1,30.05,West,281,0.0,0.0,97,0.00,,---,0.00,VWS V14.01,2013-06-12 07:05:00,
2013-06-12 03:10:00,70.9,70.0,30.05,West,281,0.0,0.0,97,0.00,,---,0.00,VWS V14.01,2013-06-12 07:10:00,
2013-06-12 03:15:00,70.9,70.0,30.05,West,281,0.0,0.0,97,0.00,,---,0.00,VWS V14.01,2013-06-12 07:15:00,
2013-06-12 03:20:00,70.9,70.0,30.05,West,281,0.0,0.0,97,0.00,,---,0.00,VWS V14.01,2013-06-12 07:20:00,
2013-06-12 03:25:00,71.1,70.2,30.05,WNW,295,0.0,1.0,97,0.00,,---,0.00,VWS V14.01,2013-06-12 07:25:00,
2013-06-12 03:30:00,71.1,70.2,30.05,WNW,295,0.0,0.0,97,0.00,,---,0.00,VWS V14.01,2013-06-12 07:30:00,
2013-06-12 03:35:00,71.0,70.1,30.05,WNW,295,0.0,0.0,97,0.00,,---,0.00,VWS V14.01,2013-06-12 07:35:00,
2013-06-12 03:40:00,70.9,70.0,30.04,WNW,295,0.0,0.0,97,0.00,,---,0.00,VWS V14.01,2013-06-12 07:40:00,
2013-06-12 03:45:00,70.8,69.9,30.04,WNW,295,0.0,0.0,97,0.00,,---,0.00,VWS V14.01,2013-06-12 07:45:00,
2013-06-12 03:50:00,70.7,69.8,30.04,WNW,295,0.0,0.0,97,0.00,,---,0.00,VWS V14.01,2013-06-12 07:50:00,
2013-06-12 03:55:00,70.6,69.7,30.04,WNW,295,0.0,0.0,97,0.00,,---,0.00,VWS V14.01,2013-06-12 07:55:00,
2013-06-12 04:00:00,70.7,69.8,30.04,WNW,295,0.0,0.0,97,0.00,,---,0.00,VWS V14.01,2013-06-12 08:00:00,
2013-06-12 04:06:00,70.7,69.8,30.05,WNW,295,0.0,0.0,97,0.00,,---,0.00,VWS V14.01,2013-06-12 08:06:00,
2013-06-12 04:11:00,70.7,69.8,30.04,WNW,295,0.0,1.0,97,0.00,,---,0.00,VWS V14.01,2013-06-12 08:11:00,
2013-06-12 04:16:00,70.7,69.8,30.04,WNW,295,0.0,1.0,97,0.00,,---,0.00,VWS V14.01,2013-06-12 08:16:00,
2013-06-12 04:21:00,70.7,69.8,30.04,WNW,295,0.0,1.0,97,0.00,,---,0.00,VWS V14.01,2013-06-12 08:21:00,
2013-06-12 04:26:00,70.7,69.8,30.04,WNW,295,0.0,1.0,97,0.00,,---,0.00,VWS V14.01,2013-06-12 08:26:00,
2013-06-12 04:32:00,70.6,69.7,30.04,WNW,295,0.0,0.0,97,0.00,,---,0.00,VWS V14.01,2013-06-12 08:32:00,
2013-06-12 04:37:00,70.5,69.6,30.04,WNW,295,0.0,0.0,97,0.00,,---,0.00,VWS V14.01,2013-06-12 08:37:00,
2013-06-12 04:42:00,70.6,69.7,30.04,WNW,295,0.0,0.0,97,0.00,,---,0.00,VWS V14.01,2013-06-12 08:42:00,
2013-06-12 04:47:00,70.6,69.7,30.04,WNW,295,0.0,0.0,97,0.00,,---,0.00,VWS V14.01,2013-06-12 08:47:00,
2013-06-12 04:52:00,70.6,69.7,30.04,WNW,295,0.0,0.0,97,0.00,,---,0.00,VWS V14.01,2013-06-12 08:52:00,
2013-06-12 04:57:00,70.6,69.7,30.04,WNW,295,0.0,0.0,97,0.00,,---,0.00,VWS V14.01,2013-06-12 08:57:00,
2013-06-12 05:02:00,70.6,69.7,30.05,WNW,295,0.0,0.0,97,0.00,,---,0.00,VWS V14.01,2013-06-12 09:02:00,
2013-06-12 05:08:00,70.7,69.8,30.04,WNW,295,0.0,0.0,97,0.00,,---,0.00,VWS V14.01,2013-06-12 09:08:00,
2013-06-12 05:13:00,70.5,69.6,30.05,WNW,295,0.0,0.0,97,0.00,,---,0.00,VWS V14.01,2013-06-12 09:13:00,
2013-06-12 05:18:00,70.4,69.5,30.05,WNW,295,0.0,0.0,97,0.00,,---,0.00,VWS V14.01,2013-06-12 09:18:00,
2013-06-12 05:23:00,70.3,69.4,30.05,WNW,295,0.0,0.0,97,0.00,,---,0.00,VWS V14.01,2013-06-12 09:23:00,
2013-06-12 05:28:00,70.3,69.4,30.05,WNW,295,0.0,0.0,97,0.00,,---,0.00,VWS V14.01,2013-06-12 09:28:00,
2013-06-12 05:33:00,70.3,69.4,30.05,WNW,295,0.0,0.0,97,0.00,,---,0.00,VWS V14.01,2013-06-12 09:33:00,
2013-06-12 05:38:00,70.3,69.4,30.05,WNW,295,0.0,0.0,97,0.00,,---,0.00,VWS V14.01,2013-06-12 09:38:00,
2013-06-12 05:43:00,70.3,69.4,30.05,WNW,295,0.0,0.0,97,0.00,,---,0.00,VWS V14.01,2013-06-12 09:43:00,
2013-06-12 05:49:00,70.3,69.7,30.05,WNW,293,0.0,0.0,98,0.00,,---,0.00,VWS V14.01,2013-06-12 09:49:00,
2013-06-12 05:54:00,70.5,69.9,30.05,WNW,293,0.0,1.0,98,0.00,,---,0.00,VWS V14.01,2013-06-12 09:54:00,
2013-06-12 05:59:00,70.4,69.5,30.06,WNW,293,0.0,1.0,97,0.00,,---,0.00,VWS V14.01,2013-06-12 09:59:00,
2013-06-12 06:04:00,70.4,69.5,30.06,WNW,293,0.0,0.0,97,0.00,,---,0.00,VWS V14.01,2013-06-12 10:04:00,
2013-06-12 06:09:00,70.4,69.5,30.06,WNW,293,0.0,0.0,97,0.00,,---,0.00,VWS V14.01,2013-06-12 10:09:00,
2013-06-12 06:14:00,70.3,69.4,30.06,WNW,293,0.0,0.0,97,0.00,,---,0.00,VWS V14.01,2013-06-12 10:14:00,
2013-06-12 06:19:00,70.3,69.4,30.06,WNW,293,0.0,0.0,97,0.00,,---,0.00,VWS V14.01,2013-06-12 10:19:00,
2013-06-12 06:24:00,70.3,69.7,30.06,WNW,293,0.0,0.0,98,0.00,,---,0.00,VWS V14.01,2013-06-12 10:24:00,
2013-06-12 06:29:00,70.3,69.4,30.06,WNW,293,0.0,0.0,97,0.00,,---,0.00,VWS V14.01,2013-06-12 10:29:00,
2013-06-12 06:35:00,70.3,69.7,30.06,WNW,293,0.0,0.0,98,0.00,,---,0.00,VWS V14.01,2013-06-12 10:35:00,
2013-06-12 06:40:00,70.8,70.2,30.06,WNW,301,0.0,1.0,98,0.00,,---,0.00,VWS V14.01,2013-06-12 10:40:00,
2013-06-12 06:45:00,71.0,70.4,30.06,NW,304,0.0,1.0,98,0.00,,---,0.00,VWS V14.01,2013-06-12 10:45:00,
2013-06-12 06:50:00,71.0,70.1,30.06,NW,304,0.0,1.0,97,0.00,,---,0.00,VWS V14.01,2013-06-12 10:50:00,
2013-06-12 06:55:00,71.4,70.8,30.07,NW,305,0.0,1.0,98,0.00,,---,0.00,VWS V14.01,2013-06-12 10:55:00,
2013-06-12 07:00:00,71.6,70.7,30.07,NW,304,0.0,0.0,97,0.00,,---,0.00,VWS V14.01,2013-06-12 11:00:00,
2013-06-12 07:05:00,71.8,71.2,30.07,NW,304,0.0,0.0,98,0.00,,---,0.00,VWS V14.01,2013-06-12 11:05:00,
2013-06-12 07:10:00,72.2,71.6,30.07,NW,305,0.0,0.0,98,0.00,,---,0.00,VWS V14.01,2013-06-12 11:10:00,
2013-06-12 07:15:00,72.7,72.1,30.07,WNW,303,0.0,0.0,98,0.00,,---,0.00,VWS V14.01,2013-06-12 11:15:00,
2013-06-12 07:21:00,73.3,72.7,30.07,NW,304,0.0,0.0,98,0.00,,---,0.00,VWS V14.01,2013-06-12 11:21:00,
2013-06-12 07:26:00,73.6,72.7,30.07,NW,304,0.0,0.0,97,0.00,,---,0.00,VWS V14.01,2013-06-12 11:26:00,
2013-06-12 07:31:00,73.8,72.9,30.07,NW,307,0.0,0.0,97,0.00,,---,0.00,VWS V14.01,2013-06-12 11:31:00,
2013-06-12 07:36:00,74.1,73.5,30.07,NW,307,0.0,0.0,98,0.00,,---,0.00,VWS V14.01,2013-06-12 11:36:00,
2013-06-12 07:41:00,74.2,73.3,30.07,NW,307,0.0,0.0,97,0.00,,---,0.00,VWS V14.01,2013-06-12 11:41:00,
2013-06-12 07:46:00,74.3,73.4,30.07,NW,307,0.0,0.0,97,0.00,,---,0.00,VWS V14.01,2013-06-12 11:46:00,
2013-06-12 07:51:00,74.4,73.5,30.07,NW,307,0.0,0.0,97,0.00,,---,0.00,VWS V14.01,2013-06-12 11:51:00,
2013-06-12 07:56:00,74.5,73.6,30.07,NW,307,0.0,0.0,97,0.00,,---,0.00,VWS V14.01,2013-06-12 11:56:00,
2013-06-12 08:02:00,74.6,73.7,30.07,NW,307,0.0,0.0,97,0.00,,---,0.00,VWS V14.01,2013-06-12 12:02:00,
2013-06-12 08:07:00,74.8,73.9,30.07,NW,307,0.0,0.0,97,0.00,,---,0.00,VWS V14.01,2013-06-12 12:07:00,
2013-06-12 08:12:00,75.2,74.3,30.08,NW,316,0.0,1.0,97,0.00,,---,0.00,VWS V14.01,2013-06-12 12:12:00,
2013-06-12 08:17:00,75.5,74.6,30.08,NW,315,0.0,1.0,97,0.00,,---,0.00,VWS V14.01,2013-06-12 12:17:00,
2013-06-12 08:22:00,75.9,74.7,30.08,NW,315,0.0,1.0,96,0.00,,---,0.00,VWS V14.01,2013-06-12 12:22:00,
2013-06-12 08:27:00,76.6,75.4,30.08,NW,321,0.0,1.0,96,0.00,,---,0.00,VWS V14.01,2013-06-12 12:27:00,
2013-06-12 08:32:00,77.4,75.9,30.08,NNW,343,0.0,1.0,95,0.00,,---,0.00,VWS V14.01,2013-06-12 12:32:00,
2013-06-12 08:37:00,78.1,76.2,30.08,North,354,0.0,1.0,94,0.00,,---,0.00,VWS V14.01,2013-06-12 12:37:00,
2013-06-12 08:43:00,79.1,76.9,30.08,WNW,298,0.0,1.0,93,0.00,,---,0.00,VWS V14.01,2013-06-12 12:43:00,
2013-06-12 08:48:00,79.8,76.9,30.08,NW,307,1.0,1.0,91,0.00,,---,0.00,VWS V14.01,2013-06-12 12:48:00,
2013-06-12 08:53:00,80.8,77.3,30.08,WNW,298,0.0,1.0,89,0.00,,---,0.00,VWS V14.01,2013-06-12 12:53:00,
2013-06-12 08:58:00,81.7,77.8,30.08,NW,309,0.0,1.0,88,0.00,,---,0.00,VWS V14.01,2013-06-12 12:58:00,
2013-06-12 09:03:00,82.5,78.2,30.08,NNW,347,1.0,2.0,87,0.00,,---,0.00,VWS V14.01,2013-06-12 13:03:00,
2013-06-12 09:08:00,82.8,78.2,30.08,SW,229,0.0,3.0,86,0.00,,---,0.00,VWS V14.01,2013-06-12 13:08:00,
2013-06-12 09:13:00,83.1,78.1,30.08,SW,231,0.0,3.0,85,0.00,,---,0.00,VWS V14.01,2013-06-12 13:13:00,
2013-06-12 09:18:00,83.7,78.7,30.08,NNW,337,1.0,3.0,85,0.00,,---,0.00,VWS V14.01,2013-06-12 13:18:00,
2013-06-12 09:23:00,83.9,78.6,30.08,North,353,0.0,3.0,84,0.00,,---,0.00,VWS V14.01,2013-06-12 13:23:00,
2013-06-12 09:28:00,84.2,78.1,30.08,WNW,298,0.0,3.0,82,0.00,,---,0.00,VWS V14.01,2013-06-12 13:28:00,
2013-06-12 09:34:00,84.7,78.6,30.08,NNW,338,0.0,2.0,82,0.00,,---,0.00,VWS V14.01,2013-06-12 13:34:00,
2013-06-12 09:39:00,85.0,78.1,30.08,West,262,1.0,3.0,80,0.00,,---,0.00,VWS V14.01,2013-06-12 13:39:00,
2013-06-12 09:44:00,85.1,78.2,30.08,WNW,291,0.0,3.0,80,0.00,,---,0.00,VWS V14.01,2013-06-12 13:44:00,
2013-06-12 09:49:00,85.7,78.8,30.08,SSE,149,0.0,3.0,80,0.00,,---,0.00,VWS V14.01,2013-06-12 13:49:00,
2013-06-12 09:54:00,85.7,78.1,30.08,NNW,327,2.0,5.0,78,0.00,,---,0.00,VWS V14.01,2013-06-12 13:54:00,
2013-06-12 09:59:00,86.0,78.3,30.08,ENE,58,1.0,5.0,78,0.00,,---,0.00,VWS V14.01,2013-06-12 13:59:00,
2013-06-12 10:04:00,86.4,78.3,30.08,NNE,20,1.0,5.0,77,0.00,,---,0.00,VWS V14.01,2013-06-12 14:04:00,
2013-06-12 10:09:00,86.3,77.8,30.08,NNW,346,1.0,5.0,76,0.00,,---,0.00,VWS V14.01,2013-06-12 14:09:00,
2013-06-12 10:14:00,85.9,77.9,30.07,NW,312,1.0,5.0,77,0.00,,---,0.00,VWS V14.01,2013-06-12 14:14:00,
2013-06-12 10:19:00,86.4,78.3,30.07,NNW,332,1.0,5.0,77,0.00,,---,0.00,VWS V14.01,2013-06-12 14:19:00,
2013-06-12 10:24:00,86.6,78.1,30.07,East,84,0.0,5.0,76,0.00,,---,0.00,VWS V14.01,2013-06-12 14:24:00,
2013-06-12 10:29:00,86.8,78.7,30.07,NNW,328,2.0,5.0,77,0.00,,---,0.00,VWS V14.01,2013-06-12 14:29:00,
2013-06-12 10:35:00,86.3,78.2,30.08,NNW,337,1.0,4.0,77,0.00,,---,0.00,VWS V14.01,2013-06-12 14:35:00,
2013-06-12 10:40:00,86.5,78.0,30.07,NNW,341,0.0,4.0,76,0.00,,---,0.00,VWS V14.01,2013-06-12 14:40:00,
2013-06-12 10:45:00,86.5,78.0,30.07,ESE,102,1.0,4.0,76,0.00,,---,0.00,VWS V14.01,2013-06-12 14:45:00,
2013-06-12 10:50:00,85.9,77.9,30.08,SSW,212,3.0,4.0,77,0.00,,---,0.00,VWS V14.01,2013-06-12 14:50:00,
2013-06-12 10:55:00,86.0,77.9,30.07,North,349,1.0,4.0,77,0.00,,---,0.00,VWS V14.01,2013-06-12 14:55:00,
2013-06-12 11:00:00,86.7,78.2,30.08,North,1,0.0,0.0,76,0.00,,---,0.00,VWS V14.01,2013-06-12 15:00:00,
2013-06-12 11:05:00,87.4,77.3,30.08,North,350,1.0,2.0,72,0.00,,---,0.00,VWS V14.01,2013-06-12 15:05:00,
2013-06-12 11:10:00,87.2,77.1,30.08,South,188,0.0,2.0,72,0.00,,---,0.00,VWS V14.01,2013-06-12 15:10:00,
2013-06-12 11:15:00,87.3,76.8,30.08,NNW,343,1.0,3.0,71,0.00,,---,0.00,VWS V14.01,2013-06-12 15:15:00,
2013-06-12 11:20:00,88.0,78.3,30.08,NW,319,1.0,3.0,73,0.00,,---,0.00,VWS V14.01,2013-06-12 15:20:00,
2013-06-12 11:25:00,88.3,77.3,30.08,NW,326,2.0,4.0,70,0.00,,---,0.00,VWS V14.01,2013-06-12 15:25:00,
2013-06-12 11:31:00,88.7,77.2,30.08,SW,231,1.0,3.0,69,0.00,,---,0.00,VWS V14.01,2013-06-12 15:31:00,
2013-06-12 11:36:00,88.8,76.4,30.08,WNW,295,2.0,4.0,67,0.00,,---,0.00,VWS V14.01,2013-06-12 15:36:00,
2013-06-12 11:41:00,88.8,76.4,30.08,NW,307,2.0,4.0,67,0.00,,---,0.00,VWS V14.01,2013-06-12 15:41:00,
2013-06-12 11:46:00,88.6,76.7,30.08,West,269,0.0,4.0,68,0.00,,---,0.00,VWS V14.01,2013-06-12 15:46:00,
2013-06-12 11:51:00,88.9,77.0,30.08,WNW,283,1.0,4.0,68,0.00,,---,0.00,VWS V14.01,2013-06-12 15:51:00,
2013-06-12 11:56:00,89.7,76.8,30.07,West,260,4.0,4.0,66,0.00,,---,0.00,VWS V14.01,2013-06-12 15:56:00,
2013-06-12 12:01:00,90.2,77.3,30.07,NW,323,1.0,1.0,66,0.00,,---,0.00,VWS V14.01,2013-06-12 16:01:00,
2013-06-12 12:06:00,90.5,76.2,30.07,SSW,193,1.0,2.0,63,0.00,,---,0.00,VWS V14.01,2013-06-12 16:06:00,
2013-06-12 12:11:00,90.3,76.5,30.07,South,169,0.0,4.0,64,0.00,,---,0.00,VWS V14.01,2013-06-12 16:11:00,
2013-06-12 12:17:00,90.7,76.4,30.07,NE,41,4.0,5.0,63,0.00,,---,0.00,VWS V14.01,2013-06-12 16:17:00,
2013-06-12 12:22:00,90.2,75.4,30.07,NNW,332,2.0,5.0,62,0.00,,---,0.00,VWS V14.01,2013-06-12 16:22:00,
2013-06-12 12:27:00,90.4,75.1,30.07,NW,318,1.0,5.0,61,0.00,,---,0.00,VWS V14.01,2013-06-12 16:27:00,
2013-06-12 12:32:00,89.9,75.6,30.07,ENE,71,3.0,4.0,63,0.00,,---,0.00,VWS V14.01,2013-06-12 16:32:00,
2013-06-12 12:37:00,90.0,75.7,30.07,West,276,0.0,4.0,63,0.00,,---,0.00,VWS V14.01,2013-06-12 16:37:00,
2013-06-12 13:00:00,92.7,73.6,30.06,SW,214,1.0,4.0,54,0.00,,---,0.00,VWS V14.01,2013-06-12 17:00:00,
2013-06-12 13:09:00,92.9,74.9,30.06,SSE,164,0.0,3.0,56,0.00,,---,0.00,VWS V14.01,2013-06-12 17:09:00,
2013-06-12 13:14:00,93.4,74.8,30.06,NW,321,1.0,3.0,55,0.00,,---,0.00,VWS V14.01,2013-06-12 17:14:00,
2013-06-12 13:19:00,93.6,73.9,30.06,NNE,25,1.0,4.0,53,0.00,,---,0.00,VWS V14.01,2013-06-12 17:19:00,
2013-06-12 13:24:00,93.1,73.4,30.05,NNW,336,1.0,6.0,53,0.00,,---,0.00,VWS V14.01,2013-06-12 17:24:00,
2013-06-12 13:29:00,92.7,73.1,30.05,NW,311,1.0,6.0,53,0.00,,---,0.00,VWS V14.01,2013-06-12 17:29:00,
2013-06-12 13:34:00,93.1,72.9,30.05,West,278,1.0,2.0,52,0.00,,---,0.00,VWS V14.01,2013-06-12 17:34:00,
2013-06-12 13:39:00,93.1,73.4,30.05,SW,225,0.0,2.0,53,0.00,,---,0.00,VWS V14.01,2013-06-12 17:39:00,
2013-06-12 13:44:00,93.2,70.0,30.05,NW,322,0.0,3.0,47,0.00,,---,0.00,VWS V14.01,2013-06-12 17:44:00,
2013-06-12 13:50:00,93.5,73.2,30.04,East,81,0.0,3.0,52,0.00,,---,0.00,VWS V14.01,2013-06-12 17:50:00,
2013-06-12 13:55:00,93.6,70.3,30.05,SSE,149,1.0,4.0,47,0.00,,---,0.00,VWS V14.01,2013-06-12 17:55:00,
2013-06-12 14:00:00,93.1,70.5,30.04,NNE,23,0.0,4.0,48,0.00,,---,0.00,VWS V14.01,2013-06-12 18:00:00,
2013-06-12 14:05:00,92.0,76.6,30.04,North,8,2.0,5.0,61,0.00,,---,0.00,VWS V14.01,2013-06-12 18:05:00,
2013-06-12 14:10:00,90.7,77.3,30.04,SSE,161,1.0,5.0,65,0.00,,---,0.00,VWS V14.01,2013-06-12 18:10:00,
2013-06-12 14:15:00,90.2,77.3,30.04,NE,56,4.0,6.0,66,0.00,,---,0.00,VWS V14.01,2013-06-12 18:15:00,
2013-06-12 14:20:00,89.9,77.0,30.04,NE,43,2.0,6.0,66,0.00,,---,0.00,VWS V14.01,2013-06-12 18:20:00,
2013-06-12 14:25:00,89.4,77.4,30.03,ENE,74,1.0,7.0,68,0.00,,---,0.00,VWS V14.01,2013-06-12 18:25:00,
2013-06-12 14:30:00,89.4,77.0,30.03,NNE,33,3.0,5.0,67,0.00,,---,0.00,VWS V14.01,2013-06-12 18:30:00,
2013-06-12 14:35:00,88.7,75.9,30.03,ENE,68,2.0,6.0,66,0.00,,---,0.00,VWS V14.01,2013-06-12 18:35:00,
2013-06-12 14:40:00,88.7,76.8,30.03,NE,56,3.0,6.0,68,0.00,,---,0.00,VWS V14.01,2013-06-12 18:40:00,
2013-06-12 14:45:00,89.2,76.4,30.03,ENE,74,5.0,10.0,66,0.00,,---,0.00,VWS V14.01,2013-06-12 18:45:00,
2013-06-12 14:50:00,89.2,76.8,30.03,NE,46,2.0,10.0,67,0.00,,---,0.00,VWS V14.01,2013-06-12 18:50:00,
2013-06-12 14:55:00,89.0,76.6,30.03,SE,126,2.0,10.0,67,0.00,,---,0.00,VWS V14.01,2013-06-12 18:55:00,
2013-06-12 15:00:00,88.4,75.6,30.03,NNE,26,7.0,9.0,66,0.00,,---,0.00,VWS V14.01,2013-06-12 19:00:00,
2013-06-12 15:05:00,88.0,76.1,30.03,NE,37,6.0,9.0,68,0.00,,---,0.00,VWS V14.01,2013-06-12 19:05:00,
2013-06-12 15:11:00,88.3,76.4,30.03,ENE,67,4.0,9.0,68,0.00,,---,0.00,VWS V14.01,2013-06-12 19:11:00,
2013-06-12 15:16:00,89.2,76.4,30.03,NE,47,8.0,11.0,66,0.00,,---,0.00,VWS V14.01,2013-06-12 19:16:00,
2013-06-12 15:21:00,88.8,75.5,30.03,ESE,103,1.0,11.0,65,0.00,,---,0.00,VWS V14.01,2013-06-12 19:21:00,
2013-06-12 15:26:00,87.9,75.1,30.03,North,1,3.0,11.0,66,0.00,,---,0.00,VWS V14.01,2013-06-12 19:26:00,
2013-06-12 15:31:00,87.5,75.6,30.04,East,79,2.0,5.0,68,0.00,,---,0.00,VWS V14.01,2013-06-12 19:31:00,
2013-06-12 15:36:00,87.6,74.8,30.04,NE,46,2.0,7.0,66,0.00,,---,0.00,VWS V14.01,2013-06-12 19:36:00,
2013-06-12 15:41:00,88.1,76.2,30.04,NE,52,3.0,8.0,68,0.00,,---,0.00,VWS V14.01,2013-06-12 19:41:00,
2013-06-12 15:46:00,88.0,76.6,30.04,NE,48,10.0,10.0,69,0.00,,---,0.00,VWS V14.01,2013-06-12 19:46:00,
2013-06-12 15:51:00,87.9,76.5,30.04,NE,46,3.0,10.0,69,0.00,,---,0.00,VWS V14.01,2013-06-12 19:51:00,
2013-06-12 15:57:00,88.2,77.2,30.04,SSE,159,2.0,10.0,70,0.00,,---,0.00,VWS V14.01,2013-06-12 19:57:00,
2013-06-12 16:02:00,88.7,76.3,30.04,NNE,12,1.0,5.0,67,0.00,,---,0.00,VWS V14.01,2013-06-12 20:02:00,
2013-06-12 16:07:00,88.8,75.1,30.04,ENE,72,6.0,6.0,64,0.00,,---,0.00,VWS V14.01,2013-06-12 20:07:00,
2013-06-12 16:12:00,88.6,76.7,30.04,ESE,119,2.0,9.0,68,0.00,,---,0.00,VWS V14.01,2013-06-12 20:12:00,
2013-06-12 16:17:00,88.4,76.1,30.04,SSE,153,2.0,9.0,67,0.00,,---,0.00,VWS V14.01,2013-06-12 20:17:00,
2013-06-12 16:22:00,88.8,76.9,30.03,ESE,122,1.0,9.0,68,0.00,,---,0.00,VWS V14.01,2013-06-12 20:22:00,
2013-06-12 16:27:00,89.2,75.0,30.03,ESE,107,4.0,9.0,63,0.00,,---,0.00,VWS V14.01,2013-06-12 20:27:00,
2013-06-12 16:32:00,89.2,76.4,30.03,East,91,1.0,3.0,66,0.00,,---,0.00,VWS V14.01,2013-06-12 20:32:00,
2013-06-12 16:37:00,89.3,76.5,30.03,ESE,103,2.0,5.0,66,0.00,,---,0.00,VWS V14.01,2013-06-12 20:37:00,
2013-06-12 16:42:00,89.2,75.4,30.02,SW,217,0.0,5.0,64,0.00,,---,0.00,VWS V14.01,2013-06-12 20:42:00,
2013-06-12 16:47:00,89.4,75.6,30.02,South,182,0.0,5.0,64,0.00,,---,0.00,VWS V14.01,2013-06-12 20:47:00,
2013-06-12 16:52:00,89.4,76.1,30.01,ESE,103,2.0,6.0,65,0.00,,---,0.00,VWS V14.01,2013-06-12 20:52:00,
2013-06-12 16:57:00,89.3,75.1,30.02,SSW,212,2.0,6.0,63,0.00,,---,0.00,VWS V14.01,2013-06-12 20:57:00,
2013-06-12 17:02:00,89.2,75.4,30.02,NNE,26,3.0,8.0,64,0.00,,---,0.00,VWS V14.01,2013-06-12 21:02:00,
2013-06-12 17:07:00,89.1,75.3,30.02,East,83,0.0,8.0,64,0.00,,---,0.00,VWS V14.01,2013-06-12 21:07:00,
2013-06-12 17:13:00,88.9,75.6,30.02,NE,43,2.0,8.0,65,0.00,,---,0.00,VWS V14.01,2013-06-12 21:13:00,
2013-06-12 17:18:00,89.1,75.8,30.02,West,262,1.0,8.0,65,0.00,,---,0.00,VWS V14.01,2013-06-12 21:18:00,
2013-06-12 17:23:00,88.9,75.2,30.03,East,101,2.0,8.0,64,0.00,,---,0.00,VWS V14.01,2013-06-12 21:23:00,
2013-06-12 17:28:00,88.9,74.7,30.02,East,89,1.0,8.0,63,0.00,,---,0.00,VWS V14.01,2013-06-12 21:28:00,
2013-06-12 17:33:00,89.3,75.5,30.03,NE,53,2.0,3.0,64,0.00,,---,0.00,VWS V14.01,2013-06-12 21:33:00,
2013-06-12 17:38:00,89.6,75.3,30.03,SSE,160,2.0,4.0,63,0.00,,---,0.00,VWS V14.01,2013-06-12 21:38:00,
2013-06-12 17:43:00,89.2,74.0,30.03,SE,129,1.0,6.0,61,0.00,,---,0.00,VWS V14.01,2013-06-12 21:43:00,
2013-06-12 17:48:00,88.6,74.4,30.02,SE,134,2.0,6.0,63,0.00,,---,0.00,VWS V14.01,2013-06-12 21:48:00,
2013-06-12 17:53:00,88.2,75.0,30.02,SSW,212,1.0,6.0,65,0.00,,---,0.00,VWS V14.01,2013-06-12 21:53:00,
2013-06-12 17:58:00,87.6,74.4,30.02,South,191,1.0,6.0,65,0.00,,---,0.00,VWS V14.01,2013-06-12 21:58:00,
2013-06-12 18:03:00,87.3,75.4,30.02,SE,132,1.0,4.0,68,0.00,,---,0.00,VWS V14.01,2013-06-12 22:03:00,
2013-06-12 18:09:00,87.3,75.0,30.02,SE,139,1.0,4.0,67,0.00,,---,0.00,VWS V14.01,2013-06-12 22:09:00,
2013-06-12 18:14:00,87.0,74.7,30.02,SE,124,1.0,4.0,67,0.00,,---,0.00,VWS V14.01,2013-06-12 22:14:00,
2013-06-12 18:19:00,86.7,74.9,30.03,ESE,112,2.0,5.0,68,0.00,,---,0.00,VWS V14.01,2013-06-12 22:19:00,
2013-06-12 18:24:00,86.4,75.0,30.02,SE,139,4.0,5.0,69,0.00,,---,0.00,VWS V14.01,2013-06-12 22:24:00,
2013-06-12 18:29:00,86.1,75.2,30.03,SSW,194,2.0,6.0,70,0.00,,---,0.00,VWS V14.01,2013-06-12 22:29:00,
2013-06-12 18:34:00,85.9,75.0,30.02,WSW,253,2.0,6.0,70,0.00,,---,0.00,VWS V14.01,2013-06-12 22:34:00,
2013-06-12 18:39:00,85.7,74.8,30.02,SSW,193,2.0,7.0,70,0.00,,---,0.00,VWS V14.01,2013-06-12 22:39:00,
2013-06-12 18:44:00,85.8,75.7,30.02,SSE,161,1.0,7.0,72,0.00,,---,0.00,VWS V14.01,2013-06-12 22:44:00,
2013-06-12 18:49:00,85.5,75.4,30.02,SSE,159,5.0,7.0,72,0.00,,---,0.00,VWS V14.01,2013-06-12 22:49:00,
2013-06-12 18:54:00,84.6,74.2,30.02,SW,219,2.0,9.0,71,0.00,,---,0.00,VWS V14.01,2013-06-12 22:54:00,
2013-06-12 18:59:00,83.7,73.3,30.02,SSE,166,2.0,9.0,71,0.00,,---,0.00,VWS V14.01,2013-06-12 22:59:00,
2013-06-12 19:04:00,83.1,72.7,30.03,South,173,3.0,5.0,71,0.00,,---,0.00,VWS V14.01,2013-06-12 23:04:00,
2013-06-12 19:09:00,82.7,71.5,30.03,SSW,210,2.0,5.0,69,0.00,,---,0.00,VWS V14.01,2013-06-12 23:09:00,
2013-06-12 19:15:00,82.4,71.2,30.02,West,280,0.0,5.0,69,0.00,,---,0.00,VWS V14.01,2013-06-12 23:15:00,
2013-06-12 19:20:00,82.7,71.1,30.03,SW,231,0.0,5.0,68,0.00,,---,0.00,VWS V14.01,2013-06-12 23:20:00,
2013-06-12 19:25:00,82.7,71.1,30.03,SSW,207,0.0,5.0,68,0.00,,---,0.00,VWS V14.01,2013-06-12 23:25:00,
2013-06-12 19:30:00,82.7,71.1,30.03,South,191,0.0,0.0,68,0.00,,---,0.00,VWS V14.01,2013-06-12 23:30:00,
2013-06-12 19:35:00,82.5,70.4,30.03,WSW,248,1.0,1.0,67,0.00,,---,0.00,VWS V14.01,2013-06-12 23:35:00,
2013-06-12 19:40:00,82.2,70.6,30.03,South,186,0.0,3.0,68,0.00,,---,0.00,VWS V14.01,2013-06-12 23:40:00,
2013-06-12 19:45:00,81.9,70.3,30.03,SW,225,0.0,3.0,68,0.00,,---,0.00,VWS V14.01,2013-06-12 23:45:00,
2013-06-12 19:50:00,81.8,70.2,30.03,NW,307,0.0,3.0,68,0.00,,---,0.00,VWS V14.01,2013-06-12 23:50:00,
2013-06-12 19:55:00,81.8,70.2,30.03,SW,224,0.0,3.0,68,0.00,,---,0.00,VWS V14.01,2013-06-12 23:55:00,
2013-06-12 20:00:00,81.6,70.4,30.03,SW,224,0.0,0.0,69,0.00,,---,0.00,VWS V14.01,2013-06-13 00:00:00,
2013-06-12 20:06:00,81.4,70.7,30.03,SW,224,0.0,0.0,70,0.00,,---,0.00,VWS V14.01,2013-06-13 00:06:00,
2013-06-12 20:11:00,81.2,70.9,30.03,West,266,0.0,1.0,71,0.00,,---,0.00,VWS V14.01,2013-06-13 00:11:00,
2013-06-12 20:16:00,81.0,71.1,30.03,West,264,0.0,1.0,72,0.00,,---,0.00,VWS V14.01,2013-06-13 00:16:00,
2013-06-12 20:21:00,80.8,70.9,30.03,WNW,288,0.0,1.0,72,0.00,,---,0.00,VWS V14.01,2013-06-13 00:21:00,
2013-06-12 20:26:00,80.8,71.3,30.03,WNW,289,0.0,1.0,73,0.00,,---,0.00,VWS V14.01,2013-06-13 00:26:00,
2013-06-12 20:31:00,80.7,71.2,30.03,WNW,285,0.0,0.0,73,0.00,,---,0.00,VWS V14.01,2013-06-13 00:31:00,
2013-06-12 20:36:00,80.5,71.5,30.04,SSE,165,0.0,1.0,74,0.00,,---,0.00,VWS V14.01,2013-06-13 00:36:00,
2013-06-12 20:41:00,80.2,71.2,30.03,West,266,0.0,1.0,74,0.00,,---,0.00,VWS V14.01,2013-06-13 00:41:00,
2013-06-12 20:46:00,80.2,71.2,30.04,West,281,0.0,1.0,74,0.00,,---,0.00,VWS V14.01,2013-06-13 00:46:00,
2013-06-12 20:51:00,79.9,70.9,30.04,West,279,0.0,1.0,74,0.00,,---,0.00,VWS V14.01,2013-06-13 00:51:00,
2013-06-12 20:56:00,79.6,70.6,30.04,WSW,255,0.0,1.0,74,0.00,,---,0.00,VWS V14.01,2013-06-13 00:56:00,
2013-06-12 21:01:00,79.2,70.6,30.04,SSW,211,0.0,1.0,75,0.00,,---,0.00,VWS V14.01,2013-06-13 01:01:00,
2013-06-12 21:07:00,79.0,70.8,30.04,SW,228,0.0,1.0,76,0.00,,---,0.00,VWS V14.01,2013-06-13 01:07:00,
2013-06-12 21:12:00,78.8,71.0,30.04,WNW,290,0.0,1.0,77,0.00,,---,0.00,VWS V14.01,2013-06-13 01:12:00,
2013-06-12 21:17:00,78.7,71.3,30.04,SW,225,0.0,1.0,78,0.00,,---,0.00,VWS V14.01,2013-06-13 01:17:00,
2013-06-12 21:22:00,78.7,71.3,30.04,WSW,252,0.0,1.0,78,0.00,,---,0.00,VWS V14.01,2013-06-13 01:22:00,
2013-06-12 21:27:00,78.5,71.4,30.04,WSW,253,0.0,2.0,79,0.00,,---,0.00,VWS V14.01,2013-06-13 01:27:00,
2013-06-12 21:32:00,78.3,71.6,30.05,SSW,205,0.0,0.0,80,0.00,,---,0.00,VWS V14.01,2013-06-13 01:32:00,
2013-06-12 21:37:00,78.3,71.6,30.05,WSW,252,0.0,1.0,80,0.00,,---,0.00,VWS V14.01,2013-06-13 01:37:00,
2013-06-12 21:42:00,78.3,71.6,30.05,West,262,0.0,2.0,80,0.00,,---,0.00,VWS V14.01,2013-06-13 01:42:00,
2013-06-12 21:47:00,78.2,71.5,30.05,SSE,160,0.0,2.0,80,0.00,,---,0.00,VWS V14.01,2013-06-13 01:47:00,
2013-06-12 21:53:00,78.1,71.1,30.05,SW,228,1.0,3.0,79,0.00,,---,0.00,VWS V14.01,2013-06-13 01:53:00,
2013-06-12 21:58:00,77.9,70.9,30.05,WNW,293,0.0,3.0,79,0.00,,---,0.00,VWS V14.01,2013-06-13 01:58:00,
2013-06-12 22:03:00,77.7,71.0,30.05,SW,226,0.0,1.0,80,0.00,,---,0.00,VWS V14.01,2013-06-13 02:03:00,
2013-06-12 22:08:00,77.4,70.8,30.05,SW,226,0.0,1.0,80,0.00,,---,0.00,VWS V14.01,2013-06-13 02:08:00,
2013-06-12 22:13:00,77.2,70.9,30.05,WSW,251,0.0,2.0,81,0.00,,---,0.00,VWS V14.01,2013-06-13 02:13:00,
2013-06-12 22:18:00,77.1,70.8,30.06,WSW,239,0.0,2.0,81,0.00,,---,0.00,VWS V14.01,2013-06-13 02:18:00,
2013-06-12 22:23:00,76.9,70.6,30.05,SSW,204,0.0,2.0,81,0.00,,---,0.00,VWS V14.01,2013-06-13 02:23:00,
2013-06-12 22:28:00,76.7,70.8,30.05,South,173,0.0,2.0,82,0.00,,---,0.00,VWS V14.01,2013-06-13 02:28:00,
2013-06-12 22:33:00,76.7,70.8,30.05,SW,218,0.0,0.0,82,0.00,,---,0.00,VWS V14.01,2013-06-13 02:33:00,
2013-06-12 22:38:00,76.5,70.6,30.05,SW,219,0.0,0.0,82,0.00,,---,0.00,VWS V14.01,2013-06-13 02:38:00,
2013-06-12 22:43:00,76.4,70.9,30.05,SW,218,0.0,0.0,83,0.00,,---,0.00,VWS V14.01,2013-06-13 02:43:00,
2013-06-12 22:48:00,76.3,71.1,30.05,SW,235,0.0,0.0,84,0.00,,---,0.00,VWS V14.01,2013-06-13 02:48:00,
2013-06-12 22:54:00,76.4,71.2,30.05,NW,304,0.0,1.0,84,0.00,,---,0.00,VWS V14.01,2013-06-13 02:54:00,
2013-06-12 22:59:00,76.4,71.2,30.05,West,274,0.0,1.0,84,0.00,,---,0.00,VWS V14.01,2013-06-13 02:59:00,
2013-06-12 23:04:00,76.5,71.3,30.05,West,264,0.0,1.0,84,0.00,,---,0.00,VWS V14.01,2013-06-13 03:04:00,
2013-06-12 23:09:00,76.2,71.0,30.05,West,264,0.0,1.0,84,0.00,,---,0.00,VWS V14.01,2013-06-13 03:09:00,
2013-06-12 23:14:00,76.0,71.2,30.05,WSW,250,1.0,1.0,85,0.00,,---,0.00,VWS V14.01,2013-06-13 03:14:00,
2013-06-12 23:19:00,75.7,71.2,30.05,WSW,247,0.0,1.0,86,0.00,,---,0.00,VWS V14.01,2013-06-13 03:19:00,
2013-06-12 23:24:00,75.5,71.0,30.05,WSW,247,0.0,1.0,86,0.00,,---,0.00,VWS V14.01,2013-06-13 03:24:00,
2013-06-12 23:29:00,75.6,71.5,30.05,WNW,282,0.0,1.0,87,0.00,,---,0.00,VWS V14.01,2013-06-13 03:29:00,
2013-06-12 23:34:00,75.7,71.6,30.05,WNW,283,0.0,0.0,87,0.00,,---,0.00,VWS V14.01,2013-06-13 03:34:00,
2013-06-12 23:39:00,75.5,71.4,30.05,WNW,283,0.0,0.0,87,0.00,,---,0.00,VWS V14.01,2013-06-13 03:39:00,
2013-06-12 23:44:00,75.3,71.5,30.05,WNW,282,0.0,0.0,88,0.00,,---,0.00,VWS V14.01,2013-06-13 03:44:00,
2013-06-12 23:50:00,75.2,71.4,30.05,WNW,283,0.0,0.0,88,0.00,,---,0.00,VWS V14.01,2013-06-13 03:50:00,
2013-06-12 23:55:00,75.0,71.5,30.05,WNW,283,0.0,0.0,89,0.00,,---,0.00,VWS V14.01,2013-06-13 03:55:00,